Time;durP1;ratioP1;P1;durP2;ratioP2;P2;SDS_P1;SDS_P2;PMS_P1;PMS_P2;Temp;Humidity;BMP_temperature;BMP_pressure;BME280_temperature;BME280_humidity;BME280_pressure;Samples;Min_cycle;Max_cycle;Signal;HPM_P1;HPM_P2
2022/01/22 00:00:32;;;;;;;;;;;6.50;99.90;;;;;;5114592;28;20022;-66
2022/01/22 00:02:58;;;;;;;;;;;6.60;99.90;;;;;;5112868;28;20397;-67
2022/01/22 00:05:24;;;;;;;;;;;6.60;99.90;;;;;;5113305;28;19920;-68
2022/01/22 00:07:50;;;;;;;;;;;6.50;99.90;;;;;;5113645;28;19972;-67
2022/01/22 00:10:19;;;;;;;;;;;6.50;99.90;;;;;;5096222;28;20008;-67
2022/01/22 00:15:16;;;;;;;;;;;6.50;99.90;;;;;;5113886;28;19920;-67
2022/01/22 00:17:41;;;;;;;;;;;6.50;99.90;;;;;;5114219;28;19920;-67
2022/01/22 00:20:07;;;;;;;;;;;6.50;99.90;;;;;;5113295;28;19920;-67
2022/01/22 00:22:35;;;;;;;;;;;6.50;99.90;;;;;;5114633;28;19924;-66
2022/01/22 00:25:02;;;;;;;;;;;6.50;99.90;;;;;;5114290;28;19967;-66
2022/01/22 00:27:28;;;;;;;;;;;6.50;99.90;;;;;;5113321;28;19926;-66
2022/01/22 00:29:54;;;;;;;;;;;6.50;99.90;;;;;;5114171;28;19924;-67
2022/01/22 00:32:20;;;;;;;;;;;6.50;99.90;;;;;;5113486;28;19968;-67
2022/01/22 00:34:45;;;;;;;;;;;6.50;99.90;;;;;;5114236;28;19920;-67
2022/01/22 00:37:11;;;;;;;;;;;6.50;99.90;;;;;;5113867;28;20254;-66
2022/01/22 00:39:37;;;;;;;;;;;6.40;99.90;;;;;;5113108;28;20022;-66
2022/01/22 00:42:08;;;;;;;;;;;6.40;99.90;;;;;;5112819;28;19989;-67
2022/01/22 00:44:33;;;;;;;;;;;6.50;99.90;;;;;;5114144;28;19976;-67
2022/01/22 00:47:00;;;;;;;;;;;6.50;99.90;;;;;;5113654;28;20322;-67
2022/01/22 00:49:26;;;;;;;;;;;6.40;99.90;;;;;;5112967;28;19965;-67
2022/01/22 00:51:52;;;;;;;;;;;6.50;99.90;;;;;;5112889;28;19974;-65
2022/01/22 00:54:17;;;;;;;;;;;6.50;99.90;;;;;;5113084;28;19935;-67
2022/01/22 00:56:43;;;;;;;;;;;6.50;99.90;;;;;;5113527;28;20404;-67
2022/01/22 00:59:08;;;;;;;;;;;6.50;99.90;;;;;;5112281;28;19924;-67
2022/01/22 01:01:34;;;;;;;;;;;6.50;99.90;;;;;;5095830;28;20375;-67
2022/01/22 01:04:02;;;;;;;;;;;6.50;99.90;;;;;;5113378;28;20010;-67
2022/01/22 01:06:28;;;;;;;;;;;6.50;99.90;;;;;;5112978;27;19924;-66
2022/01/22 01:08:53;;;;;;;;;;;6.50;99.90;;;;;;5113616;27;19985;-66
2022/01/22 01:11:20;;;;;;;;;;;6.50;99.90;;;;;;5113231;28;20349;-67
2022/01/22 01:13:49;;;;;;;;;;;6.50;99.90;;;;;;5095260;28;20026;-66
2022/01/22 01:32:33;;;;;;;;;;;6.50;99.90;;;;;;5113273;28;20046;-66
2022/01/22 01:35:04;;;;;;;;;;;6.50;99.90;;;;;;5078951;28;19923;-69
2022/01/22 01:37:30;;;;;;;;;;;6.60;99.90;;;;;;5113129;28;19928;-66
2022/01/22 01:40:00;;;;;;;;;;;6.50;99.90;;;;;;5112959;28;19930;-67
2022/01/22 01:42:45;;;;;;;;;;;6.50;99.90;;;;;;5112976;28;19923;-66
2022/01/22 01:45:11;;;;;;;;;;;6.50;99.90;;;;;;5111761;28;19931;-66
2022/01/22 01:47:38;;;;;;;;;;;6.50;99.90;;;;;;5112794;28;19923;-66
2022/01/22 01:50:05;;;;;;;;;;;6.40;99.90;;;;;;5111336;28;20090;-66
2022/01/22 01:52:44;;;;;;;;;;;6.50;99.90;;;;;;5077729;28;19967;-66
2022/01/22 01:55:18;;;;;;;;;;;6.50;99.90;;;;;;5112542;28;19924;-66
2022/01/22 01:57:44;;;;;;;;;;;6.50;99.90;;;;;;5112685;28;19927;-66
2022/01/22 02:00:18;;;;;;;;;;;6.40;99.90;;;;;;5112397;28;19924;-66
2022/01/22 02:02:45;;;;;;;;;;;6.40;99.90;;;;;;5111589;28;19951;-66
2022/01/22 02:05:11;;;;;;;;;;;6.40;99.90;;;;;;5111039;28;20440;-66
2022/01/22 02:07:39;;;;;;;;;;;6.30;99.90;;;;;;5111341;28;20018;-66
2022/01/22 02:10:07;;;;;;;;;;;6.30;99.90;;;;;;5112200;28;20057;-66
2022/01/22 02:12:59;;;;;;;;;;;6.30;99.90;;;;;;5112492;28;19928;-66
2022/01/22 02:23:39;;;;;;;;;;;6.30;99.90;;;;;;5111471;28;20336;-66
2022/01/22 02:26:06;;;;;;;;;;;6.30;99.90;;;;;;5095472;28;19953;-69
2022/01/22 02:28:32;;;;;;;;;;;6.30;99.90;;;;;;5112374;28;19924;-66
2022/01/22 02:31:10;;;;;;;;;;;6.30;99.90;;;;;;5112360;28;19924;-66
2022/01/22 02:33:49;;;;;;;;;;;6.30;99.90;;;;;;5112671;28;19943;-67
2022/01/22 02:36:26;;;;;;;;;;;6.30;99.90;;;;;;5112112;28;19928;-66
2022/01/22 02:39:18;;;;;;;;;;;6.30;99.90;;;;;;5111356;28;20200;-66
2022/01/22 02:41:42;;;;;;;;;;;6.30;99.90;;;;;;5111342;28;20289;-67
2022/01/22 02:44:14;;;;;;;;;;;6.30;99.90;;;;;;5111726;28;20416;-67
2022/01/22 02:46:42;;;;;;;;;;;6.20;99.90;;;;;;5111796;28;20384;-66
2022/01/22 02:49:08;;;;;;;;;;;6.20;99.90;;;;;;5093427;28;20021;-70
2022/01/22 02:51:34;;;;;;;;;;;6.20;99.90;;;;;;5111994;28;19924;-68
2022/01/22 02:54:00;;;;;;;;;;;6.20;99.90;;;;;;5093625;28;19924;-68
2022/01/22 02:56:26;;;;;;;;;;;6.20;99.90;;;;;;5111622;28;20181;-67
2022/01/22 02:58:53;;;;;;;;;;;6.20;99.90;;;;;;5110510;28;20002;-65
2022/01/22 03:01:19;;;;;;;;;;;6.20;99.90;;;;;;5110030;28;20295;-67
2022/01/22 03:03:45;;;;;;;;;;;6.20;99.90;;;;;;5110642;28;19924;-67
2022/01/22 03:06:10;;;;;;;;;;;6.20;99.90;;;;;;5110367;28;19924;-69
2022/01/22 03:08:39;;;;;;;;;;;6.30;99.90;;;;;;5111751;28;19923;-66
2022/01/22 03:11:15;;;;;;;;;;;6.20;99.90;;;;;;5110076;28;20383;-67
2022/01/22 03:19:14;;;;;;;;;;;6.20;99.90;;;;;;5111660;28;19924;-68
2022/01/22 03:21:56;;;;;;;;;;;6.20;99.90;;;;;;5111546;28;19924;-67
2022/01/22 03:27:23;;;;;;;;;;;6.20;99.90;;;;;;5110271;28;20395;-67
2022/01/22 03:29:50;;;;;;;;;;;6.30;99.90;;;;;;5113843;28;19923;-67
2022/01/22 03:32:17;;;;;;;;;;;6.30;99.90;;;;;;5115001;28;19927;-67
2022/01/22 03:34:54;;;;;;;;;;;6.30;99.90;;;;;;5115557;28;19967;-67
2022/01/22 03:37:20;;;;;;;;;;;6.30;99.90;;;;;;5114020;28;19946;-67
2022/01/22 03:39:46;;;;;;;;;;;6.30;99.90;;;;;;5115378;28;19923;-67
2022/01/22 03:42:11;;;;;;;;;;;6.30;99.90;;;;;;5115398;28;19931;-66
2022/01/22 03:44:37;;;;;;;;;;;6.30;99.90;;;;;;5113913;28;19923;-66
2022/01/22 03:47:04;;;;;;;;;;;6.30;99.90;;;;;;5097042;28;20038;-66
2022/01/22 03:49:30;;;;;;;;;;;6.30;99.90;;;;;;5114457;28;20022;-69
2022/01/22 03:51:56;;;;;;;;;;;6.30;99.90;;;;;;5114822;28;20024;-66
2022/01/22 03:54:21;;;;;;;;;;;6.30;99.90;;;;;;5114567;28;19924;-67
2022/01/22 03:56:47;;;;;;;;;;;6.30;99.90;;;;;;5115036;28;19924;-67
2022/01/22 03:59:13;;;;;;;;;;;6.30;99.90;;;;;;5114898;28;19923;-67
2022/01/22 04:04:10;;;;;;;;;;;6.30;99.90;;;;;;5113685;28;19930;-66
2022/01/22 04:09:07;;;;;;;;;;;6.30;99.90;;;;;;5114717;28;20029;-66
2022/01/22 04:11:36;;;;;;;;;;;6.20;99.90;;;;;;5114552;28;20031;-65
2022/01/22 04:14:04;;;;;;;;;;;6.20;99.90;;;;;;5114915;28;19928;-66
2022/01/22 04:16:31;;;;;;;;;;;6.20;99.90;;;;;;5114315;28;19927;-66
2022/01/22 04:27:13;;;;;;;;;;;6.20;99.90;;;;;;5113855;28;20400;-66
2022/01/22 04:29:40;;;;;;;;;;;6.20;99.90;;;;;;5114249;28;20394;-66
2022/01/22 04:32:06;;;;;;;;;;;6.20;99.90;;;;;;5114516;28;19924;-66
2022/01/22 04:34:31;;;;;;;;;;;6.20;99.90;;;;;;5114151;28;19946;-65
2022/01/22 04:36:57;;;;;;;;;;;6.20;99.90;;;;;;5114292;27;20369;-66
2022/01/22 04:39:24;;;;;;;;;;;6.20;99.90;;;;;;5113943;28;19928;-66
2022/01/22 04:41:52;;;;;;;;;;;6.20;99.90;;;;;;5112389;28;19924;-65
2022/01/22 04:44:18;;;;;;;;;;;6.20;99.90;;;;;;5113418;28;20318;-65
2022/01/22 04:57:04;;;;;;;;;;;6.20;99.90;;;;;;5113863;28;19924;-66
2022/01/22 04:59:30;;;;;;;;;;;6.20;99.90;;;;;;5113475;28;20277;-65
2022/01/22 05:01:56;;;;;;;;;;;6.20;99.90;;;;;;5113939;28;19924;-66
2022/01/22 05:04:22;;;;;;;;;;;6.20;99.90;;;;;;5112357;28;19946;-66
2022/01/22 05:06:47;;;;;;;;;;;6.20;99.90;;;;;;5113386;28;19919;-66
2022/01/22 05:09:13;;;;;;;;;;;6.20;99.90;;;;;;5112687;28;19930;-66
2022/01/22 05:11:38;;;;;;;;;;;6.20;99.90;;;;;;5113486;28;19969;-66
2022/01/22 05:14:04;;;;;;;;;;;6.20;99.90;;;;;;5113689;28;19930;-66
2022/01/22 05:16:30;;;;;;;;;;;6.20;99.90;;;;;;5113248;28;19924;-65
2022/01/22 05:19:01;;;;;;;;;;;6.20;99.90;;;;;;5113290;28;19931;-65
2022/01/22 05:21:29;;;;;;;;;;;6.20;99.90;;;;;;5113598;28;19927;-66
2022/01/22 05:23:58;;;;;;;;;;;6.20;99.90;;;;;;5113538;28;19981;-66
2022/01/22 05:27:25;;;;;;;;;;;6.20;99.90;;;;;;5113501;28;19924;-65
2022/01/22 05:36:59;;;;;;;;;;;6.20;99.90;;;;;;5113041;28;19924;-66
2022/01/22 05:39:25;;;;;;;;;;;6.30;99.90;;;;;;5113138;28;19923;-66
2022/01/22 05:41:50;;;;;;;;;;;6.20;99.90;;;;;;5112851;28;20297;-66
2022/01/22 05:44:16;;;;;;;;;;;6.20;99.90;;;;;;5113147;28;20280;-67
2022/01/22 05:46:42;;;;;;;;;;;6.30;99.90;;;;;;5112595;28;19983;-67
2022/01/22 05:49:07;;;;;;;;;;;6.20;99.90;;;;;;5112971;28;20022;-68
2022/01/22 05:51:35;;;;;;;;;;;6.20;99.90;;;;;;5112313;28;19924;-68
2022/01/22 05:59:48;;;;;;;;;;;6.20;99.90;;;;;;5052742;28;20293;-66
2022/01/22 06:02:15;;;;;;;;;;;6.20;99.90;;;;;;5094734;28;20014;-66
2022/01/22 06:04:42;;;;;;;;;;;6.20;99.90;;;;;;5112406;28;20324;-65
2022/01/22 06:07:07;;;;;;;;;;;6.20;99.90;;;;;;5112578;28;19955;-65
2022/01/22 06:09:34;;;;;;;;;;;6.20;99.90;;;;;;5111596;28;19970;-66
2022/01/22 06:14:31;;;;;;;;;;;6.20;99.90;;;;;;5112917;28;20396;-65
2022/01/22 06:16:57;;;;;;;;;;;6.20;99.90;;;;;;5111321;28;19979;-66
2022/01/22 06:19:23;;;;;;;;;;;6.20;99.90;;;;;;5112603;28;19927;-66
2022/01/22 06:21:51;;;;;;;;;;;6.20;99.90;;;;;;5111946;28;19996;-66
2022/01/22 06:24:20;;;;;;;;;;;6.20;99.90;;;;;;5112558;28;19977;-66
2022/01/22 06:26:46;;;;;;;;;;;6.20;99.90;;;;;;5094200;28;20373;-65
2022/01/22 06:29:15;;;;;;;;;;;6.20;99.90;;;;;;5111032;28;19962;-65
2022/01/22 06:31:41;;;;;;;;;;;6.20;99.90;;;;;;5111993;28;19967;-66
2022/01/22 06:34:06;;;;;;;;;;;6.20;99.90;;;;;;5094446;28;20332;-65
2022/01/22 06:36:32;;;;;;;;;;;6.30;99.90;;;;;;5112428;28;20010;-67
2022/01/22 06:39:10;;;;;;;;;;;6.20;99.90;;;;;;5094056;28;19923;-65
2022/01/22 06:41:45;;;;;;;;;;;6.20;99.90;;;;;;5112640;28;19985;-65
2022/01/22 06:44:12;;;;;;;;;;;6.20;99.90;;;;;;5111320;28;20280;-65
2022/01/22 06:46:38;;;;;;;;;;;6.20;99.90;;;;;;5112143;28;19924;-65
2022/01/22 06:49:03;;;;;;;;;;;6.20;99.90;;;;;;5110548;28;20007;-66
2022/01/22 06:51:29;;;;;;;;;;;6.10;99.90;;;;;;5111765;28;19965;-66
2022/01/22 06:53:55;;;;;;;;;;;6.10;99.90;;;;;;5109189;28;19973;-65
2022/01/22 06:56:21;;;;;;;;;;;6.10;99.90;;;;;;5110236;28;20342;-65
2022/01/22 06:58:50;;;;;;;;;;;6.10;99.90;;;;;;5110688;28;19931;-66
2022/01/22 07:01:16;;;;;;;;;;;6.20;99.90;;;;;;5110845;28;19931;-66
2022/01/22 07:03:41;;;;;;;;;;;6.10;99.90;;;;;;5111982;28;19924;-65
2022/01/22 07:06:07;;;;;;;;;;;6.10;99.90;;;;;;5116066;28;19924;-65
2022/01/22 07:08:33;;;;;;;;;;;6.10;99.90;;;;;;5116072;28;19928;-66
2022/01/22 07:10:58;;;;;;;;;;;6.10;99.90;;;;;;5115547;28;20450;-67
2022/01/22 07:13:24;;;;;;;;;;;6.10;99.90;;;;;;5115487;28;19977;-66
2022/01/22 07:15:49;;;;;;;;;;;6.10;99.90;;;;;;5115661;28;19924;-66
2022/01/22 07:18:15;;;;;;;;;;;6.10;99.90;;;;;;5115804;28;19931;-65
2022/01/22 07:20:42;;;;;;;;;;;6.10;99.90;;;;;;5114497;28;19973;-66
2022/01/22 07:23:18;;;;;;;;;;;6.10;99.90;;;;;;5115076;27;20022;-66
2022/01/22 07:25:44;;;;;;;;;;;6.10;99.90;;;;;;5115669;28;19928;-66
2022/01/22 07:28:11;;;;;;;;;;;6.10;99.90;;;;;;5114407;28;20331;-65
2022/01/22 07:30:38;;;;;;;;;;;6.10;99.90;;;;;;5115505;28;19928;-65
2022/01/22 07:33:03;;;;;;;;;;;6.10;99.90;;;;;;5114232;28;19981;-66
2022/01/22 07:35:29;;;;;;;;;;;6.10;99.90;;;;;;5114439;28;19963;-66
2022/01/22 07:37:55;;;;;;;;;;;6.10;99.90;;;;;;5113658;28;19924;-66
2022/01/22 07:40:21;;;;;;;;;;;6.10;99.90;;;;;;5115394;28;19969;-66
2022/01/22 07:42:46;;;;;;;;;;;6.10;99.90;;;;;;5114883;28;19928;-66
2022/01/22 07:45:12;;;;;;;;;;;6.00;99.90;;;;;;5114776;28;19967;-66
2022/01/22 07:47:38;;;;;;;;;;;6.00;99.90;;;;;;5114799;28;19931;-66
2022/01/22 07:50:04;;;;;;;;;;;6.00;99.90;;;;;;5096845;28;20019;-66
2022/01/22 07:52:30;;;;;;;;;;;6.00;99.90;;;;;;5115310;28;20019;-66
2022/01/22 07:54:56;;;;;;;;;;;6.00;99.90;;;;;;5113046;28;20401;-66
2022/01/22 07:57:21;;;;;;;;;;;6.00;99.90;;;;;;5114935;28;20026;-66
2022/01/22 07:59:47;;;;;;;;;;;6.10;99.90;;;;;;5113854;28;19968;-65
2022/01/22 08:02:14;;;;;;;;;;;6.00;99.90;;;;;;5114777;28;19932;-66
2022/01/22 08:04:40;;;;;;;;;;;6.00;99.90;;;;;;5114797;28;19930;-65
2022/01/22 08:07:06;;;;;;;;;;;6.00;99.90;;;;;;5114273;28;19996;-66
2022/01/22 08:09:32;;;;;;;;;;;6.00;99.90;;;;;;5114708;28;19927;-66
2022/01/22 08:11:59;;;;;;;;;;;6.00;99.90;;;;;;5096272;28;19924;-66
2022/01/22 08:14:24;;;;;;;;;;;6.00;99.90;;;;;;5114570;28;20026;-65
2022/01/22 08:16:50;;;;;;;;;;;6.00;99.90;;;;;;5114392;28;19930;-69
2022/01/22 08:19:16;;;;;;;;;;;6.10;99.90;;;;;;5114503;28;19923;-65
2022/01/22 08:21:44;;;;;;;;;;;6.00;99.90;;;;;;5113566;28;19923;-66
2022/01/22 08:24:10;;;;;;;;;;;6.10;99.90;;;;;;5113101;28;19972;-66
2022/01/22 08:26:41;;;;;;;;;;;6.10;99.90;;;;;;5114547;28;20229;-66
2022/01/22 08:29:06;;;;;;;;;;;6.20;99.90;;;;;;5112770;28;19971;-65
2022/01/22 08:36:43;;;;;;;;;;;6.10;99.90;;;;;;5112902;28;19934;-67
2022/01/22 08:39:09;;;;;;;;;;;6.10;99.90;;;;;;5113617;28;20388;-66
2022/01/22 08:41:35;;;;;;;;;;;6.10;99.90;;;;;;5114146;28;19923;-66
2022/01/22 08:44:01;;;;;;;;;;;6.10;99.90;;;;;;5113501;28;20398;-65
2022/01/22 08:46:27;;;;;;;;;;;6.10;99.90;;;;;;5095739;28;19966;-66
2022/01/22 08:48:53;;;;;;;;;;;6.10;99.90;;;;;;5113959;28;19928;-66
2022/01/22 08:51:18;;;;;;;;;;;6.10;99.90;;;;;;5113064;28;19931;-66
2022/01/22 08:53:44;;;;;;;;;;;6.10;99.90;;;;;;5112434;28;19971;-66
2022/01/22 08:56:10;;;;;;;;;;;6.10;99.90;;;;;;5113519;28;19947;-67
2022/01/22 08:58:36;;;;;;;;;;;6.10;99.90;;;;;;5113730;28;20280;-67
2022/01/22 09:01:01;;;;;;;;;;;6.10;99.90;;;;;;5113767;28;19927;-66
2022/01/22 09:03:27;;;;;;;;;;;6.10;99.90;;;;;;5112785;28;19924;-66
2022/01/22 09:05:54;;;;;;;;;;;6.20;99.90;;;;;;5113638;28;19976;-67
2022/01/22 09:08:20;;;;;;;;;;;6.20;99.90;;;;;;5112018;28;19971;-67
2022/01/22 09:10:46;;;;;;;;;;;6.30;99.90;;;;;;5113507;28;19924;-66
2022/01/22 09:13:12;;;;;;;;;;;6.30;99.90;;;;;;5113346;28;19935;-67
2022/01/22 09:15:38;;;;;;;;;;;6.30;99.90;;;;;;5113222;28;20030;-68
2022/01/22 09:18:05;;;;;;;;;;;6.40;99.90;;;;;;5113004;28;19930;-66
2022/01/22 09:20:44;;;;;;;;;;;6.40;99.90;;;;;;5112522;28;20425;-66
2022/01/22 09:23:11;;;;;;;;;;;6.40;99.90;;;;;;5113162;28;19924;-66
2022/01/22 09:25:37;;;;;;;;;;;6.40;99.90;;;;;;5111921;28;20410;-66
2022/01/22 09:28:03;;;;;;;;;;;6.40;99.90;;;;;;5112115;28;19932;-67
2022/01/22 09:30:28;;;;;;;;;;;6.40;99.90;;;;;;5113237;28;19946;-67
2022/01/22 09:32:54;;;;;;;;;;;6.40;99.90;;;;;;5112198;28;19935;-67
2022/01/22 09:35:19;;;;;;;;;;;6.40;99.90;;;;;;5113160;28;20002;-69
2022/01/22 09:37:45;;;;;;;;;;;6.40;99.90;;;;;;5112081;28;20312;-68
2022/01/22 09:40:14;;;;;;;;;;;6.50;99.90;;;;;;5112667;28;19924;-67
2022/01/22 09:42:40;;;;;;;;;;;6.50;99.90;;;;;;5112898;28;19969;-67
2022/01/22 09:45:06;;;;;;;;;;;6.50;99.90;;;;;;5112624;28;19928;-67
2022/01/22 09:47:32;;;;;;;;;;;6.50;99.90;;;;;;5112864;28;20002;-67
2022/01/22 09:49:58;;;;;;;;;;;6.50;99.90;;;;;;5111273;28;20365;-66
2022/01/22 09:52:24;;;;;;;;;;;6.50;99.90;;;;;;5112044;28;19924;-67
2022/01/22 09:54:49;;;;;;;;;;;6.50;99.90;;;;;;5111734;28;19923;-66
2022/01/22 09:57:15;;;;;;;;;;;6.50;99.90;;;;;;5110828;28;19924;-67
2022/01/22 09:59:40;;;;;;;;;;;6.50;99.90;;;;;;5111645;28;19924;-65
2022/01/22 10:02:13;;;;;;;;;;;6.50;99.90;;;;;;5111939;28;19931;-66
2022/01/22 10:04:40;;;;;;;;;;;6.50;99.90;;;;;;5111814;28;19939;-66
2022/01/22 10:07:14;;;;;;;;;;;6.50;99.90;;;;;;5110839;28;20474;-67
2022/01/22 10:09:57;;;;;;;;;;;6.50;99.90;;;;;;5112027;28;19924;-67
2022/01/22 10:12:24;;;;;;;;;;;6.60;99.90;;;;;;5111810;28;19930;-68
2022/01/22 10:15:05;;;;;;;;;;;6.60;99.90;;;;;;5112186;28;19972;-66
2022/01/22 10:17:42;;;;;;;;;;;6.60;99.90;;;;;;5112161;28;19931;-67
2022/01/22 10:20:28;;;;;;;;;;;6.60;99.90;;;;;;5110638;28;19924;-67
2022/01/22 10:22:58;;;;;;;;;;;6.70;99.90;;;;;;5111219;28;20296;-66
2022/01/22 10:25:28;;;;;;;;;;;6.70;99.90;;;;;;5111868;28;19924;-67
2022/01/22 10:27:57;;;;;;;;;;;6.70;99.90;;;;;;5094196;28;19968;-68
2022/01/22 10:30:28;;;;;;;;;;;6.70;99.90;;;;;;5093794;28;20376;-67
2022/01/22 10:33:39;;;;;;;;;;;6.80;99.90;;;;;;5112246;28;19931;-67
2022/01/22 10:35:40;;;;;;;;;;;6.70;99.90;;;;;;5103750;28;19924;-68
2022/01/22 10:38:05;;;;;;;;;;;6.80;99.90;;;;;;5112332;28;19946;-67
2022/01/22 10:40:36;;;;;;;;;;;6.80;99.90;;;;;;5114610;28;20425;-66
2022/01/22 10:43:17;;;;;;;;;;;6.80;99.90;;;;;;5116360;28;19928;-66
2022/01/22 10:46:04;;;;;;;;;;;6.80;99.90;;;;;;5116339;28;19950;-66
2022/01/22 10:48:30;;;;;;;;;;;6.80;99.90;;;;;;5115903;28;19983;-64
2022/01/22 10:51:06;;;;;;;;;;;6.80;99.90;;;;;;5097667;28;20268;-65
2022/01/22 10:53:42;;;;;;;;;;;6.80;99.90;;;;;;5115407;27;19924;-65
2022/01/22 10:56:09;;;;;;;;;;;6.80;99.90;;;;;;5115999;28;19923;-67
2022/01/22 10:58:34;;;;;;;;;;;6.80;99.90;;;;;;5115442;28;19924;-65
2022/01/22 11:01:01;;;;;;;;;;;6.90;99.90;;;;;;5114401;28;19973;-66
2022/01/22 11:03:28;;;;;;;;;;;6.80;99.90;;;;;;5114430;28;20388;-65
2022/01/22 11:05:54;;;;;;;;;;;6.80;99.90;;;;;;5115371;28;20014;-64
2022/01/22 11:08:20;;;;;;;;;;;6.90;99.90;;;;;;5113895;28;19924;-65
2022/01/22 11:10:46;;;;;;;;;;;6.90;99.90;;;;;;5114183;28;19924;-65
2022/01/22 11:13:12;;;;;;;;;;;6.90;99.90;;;;;;5115692;28;19924;-65
2022/01/22 11:15:41;;;;;;;;;;;6.90;99.90;;;;;;5115663;28;19924;-66
2022/01/22 11:18:07;;;;;;;;;;;6.90;99.90;;;;;;5114221;28;19928;-66
2022/01/22 11:20:33;;;;;;;;;;;6.90;99.90;;;;;;5114860;28;20189;-66
2022/01/22 11:22:59;;;;;;;;;;;6.90;99.90;;;;;;5115478;28;19923;-66
2022/01/22 11:25:26;;;;;;;;;;;6.90;99.90;;;;;;5114155;28;19924;-66
2022/01/22 11:27:52;;;;;;;;;;;6.90;99.90;;;;;;5115420;28;19927;-65
2022/01/22 11:30:18;;;;;;;;;;;6.90;99.90;;;;;;5114888;28;20380;-66
2022/01/22 11:32:48;;;;;;;;;;;6.90;99.90;;;;;;5114079;28;19928;-66
2022/01/22 11:35:18;;;;;;;;;;;6.90;99.90;;;;;;5115214;27;19923;-65
2022/01/22 11:38:10;;;;;;;;;;;6.90;99.90;;;;;;5096613;28;20278;-62
2022/01/22 11:40:36;;;;;;;;;;;7.00;99.90;;;;;;5110549;28;19924;-67
2022/01/22 11:43:08;;;;;;;;;;;7.00;99.90;;;;;;5113921;28;19930;-65
2022/01/22 11:45:43;;;;;;;;;;;6.90;99.90;;;;;;5113720;28;19924;-65
2022/01/22 11:48:10;;;;;;;;;;;6.90;99.90;;;;;;5113925;28;20270;-65
2022/01/22 11:50:35;;;;;;;;;;;6.90;99.90;;;;;;5113965;28;19924;-65
2022/01/22 11:53:20;;;;;;;;;;;6.90;99.90;;;;;;5113472;28;19928;-69
2022/01/22 11:56:05;;;;;;;;;;;6.90;99.90;;;;;;5096786;28;19924;-66
2022/01/22 11:58:30;;;;;;;;;;;6.90;99.90;;;;;;5114595;28;20010;-66
2022/01/22 12:00:56;;;;;;;;;;;6.90;99.90;;;;;;5114969;28;20020;-64
2022/01/22 12:03:22;;;;;;;;;;;6.90;99.90;;;;;;5113949;28;19938;-66
2022/01/22 12:05:53;;;;;;;;;;;7.00;99.90;;;;;;5115111;28;19947;-66
2022/01/22 12:08:20;;;;;;;;;;;6.90;99.90;;;;;;5096418;28;19924;-66
2022/01/22 12:16:17;;;;;;;;;;;6.90;99.90;;;;;;5114499;28;19947;-67
2022/01/22 12:18:54;;;;;;;;;;;6.90;99.90;;;;;;5114225;28;19934;-67
2022/01/22 12:21:36;;;;;;;;;;;6.90;99.90;;;;;;5096375;28;19939;-66
2022/01/22 12:24:03;;;;;;;;;;;6.90;99.90;;;;;;5114698;28;19920;-66
2022/01/22 12:26:36;;;;;;;;;;;6.90;99.90;;;;;;5113561;28;20380;-67
2022/01/22 12:29:22;;;;;;;;;;;6.80;99.90;;;;;;5113128;28;19931;-65
2022/01/22 12:32:06;;;;;;;;;;;6.90;99.90;;;;;;5113904;28;19924;-66
2022/01/22 12:34:58;;;;;;;;;;;6.90;99.90;;;;;;5113772;28;19936;-66
2022/01/22 12:37:24;;;;;;;;;;;6.90;99.90;;;;;;5107416;28;19924;-70
2022/01/22 12:39:53;;;;;;;;;;;6.80;99.90;;;;;;5112784;28;19924;-66
2022/01/22 12:42:32;;;;;;;;;;;6.90;99.90;;;;;;5095896;28;19924;-66
2022/01/22 12:44:59;;;;;;;;;;;6.90;99.90;;;;;;5114074;28;19939;-64
2022/01/22 12:47:25;;;;;;;;;;;6.90;99.90;;;;;;5113523;28;20019;-70
2022/01/22 12:50:02;;;;;;;;;;;6.90;99.90;;;;;;5113905;28;20272;-64
2022/01/22 12:52:28;;;;;;;;;;;6.90;99.90;;;;;;5113178;28;20061;-65
2022/01/22 12:54:58;;;;;;;;;;;6.90;99.90;;;;;;5113648;28;19959;-67
2022/01/22 12:57:25;;;;;;;;;;;6.90;99.90;;;;;;5113775;28;19928;-65
2022/01/22 12:59:53;;;;;;;;;;;7.00;99.90;;;;;;5113837;28;19924;-65
2022/01/22 13:02:19;;;;;;;;;;;7.00;99.90;;;;;;5111680;28;20020;-65
2022/01/22 13:04:58;;;;;;;;;;;6.90;99.90;;;;;;5112073;28;20363;-67
2022/01/22 13:07:25;;;;;;;;;;;7.00;99.90;;;;;;5113510;28;19977;-66
2022/01/22 13:09:54;;;;;;;;;;;6.90;99.90;;;;;;5094965;28;19923;-66
2022/01/22 13:12:20;;;;;;;;;;;6.90;99.90;;;;;;5113459;28;19983;-66
2022/01/22 13:14:46;;;;;;;;;;;6.90;99.90;;;;;;5112108;28;20328;-66
2022/01/22 13:17:12;;;;;;;;;;;6.90;99.90;;;;;;5113436;28;19932;-67
2022/01/22 13:19:39;;;;;;;;;;;7.00;99.90;;;;;;5113124;28;19923;-66
2022/01/22 13:22:05;;;;;;;;;;;6.90;99.90;;;;;;5113076;27;20010;-68
2022/01/22 13:24:31;;;;;;;;;;;6.90;99.90;;;;;;5113135;28;20018;-68
2022/01/22 13:27:04;;;;;;;;;;;6.90;99.90;;;;;;5112165;28;19986;-65
2022/01/22 13:29:31;;;;;;;;;;;7.00;99.90;;;;;;5113254;28;19930;-66
2022/01/22 13:32:08;;;;;;;;;;;6.90;99.90;;;;;;5113308;28;19963;-65
2022/01/22 13:35:04;;;;;;;;;;;6.90;99.90;;;;;;5112259;28;19976;-64
2022/01/22 13:38:02;;;;;;;;;;;6.90;99.90;;;;;;5112771;28;19924;-67
2022/01/22 13:40:34;;;;;;;;;;;6.90;99.90;;;;;;5112356;28;19930;-67
2022/01/22 13:48:33;;;;;;;;;;;6.80;99.90;;;;;;5112397;28;19924;-66
2022/01/22 13:51:02;;;;;;;;;;;6.80;99.90;;;;;;5111487;28;20302;-70
2022/01/22 13:53:28;;;;;;;;;;;6.80;99.90;;;;;;5112650;28;20365;-66
2022/01/22 13:56:02;;;;;;;;;;;6.80;99.90;;;;;;5111472;28;20463;-68
2022/01/22 13:58:28;;;;;;;;;;;6.80;99.90;;;;;;5110838;28;20445;-68
2022/01/22 14:00:54;;;;;;;;;;;6.80;99.90;;;;;;5111681;28;20010;-69
2022/01/22 14:05:52;;;;;;;;;;;6.70;99.90;;;;;;5112451;28;19976;-68
2022/01/22 14:08:28;;;;;;;;;;;6.70;99.90;;;;;;5112475;28;19930;-67
2022/01/22 14:11:01;;;;;;;;;;;6.70;99.90;;;;;;5094206;28;20044;-68
2022/01/22 14:13:27;;;;;;;;;;;6.70;99.90;;;;;;5112535;28;19930;-68
2022/01/22 14:15:53;;;;;;;;;;;6.60;99.90;;;;;;5111337;28;20316;-68
2022/01/22 14:18:19;;;;;;;;;;;6.60;99.90;;;;;;5112577;28;20345;-67
2022/01/22 14:20:45;;;;;;;;;;;6.60;99.90;;;;;;5112182;28;19924;-68
2022/01/22 14:23:19;;;;;;;;;;;6.60;99.90;;;;;;5112351;28;19992;-68
2022/01/22 14:26:01;;;;;;;;;;;6.60;99.90;;;;;;5111968;28;20007;-68
2022/01/22 14:28:36;;;;;;;;;;;6.60;99.90;;;;;;5112341;28;19924;-68
2022/01/22 14:31:02;;;;;;;;;;;6.60;99.90;;;;;;5111907;28;19953;-68
2022/01/22 14:33:40;;;;;;;;;;;6.60;99.90;;;;;;5111143;28;19928;-68
2022/01/22 14:36:05;;;;;;;;;;;6.60;99.90;;;;;;5111422;28;20183;-68
2022/01/22 14:38:40;;;;;;;;;;;6.60;99.90;;;;;;5112184;28;19924;-68
2022/01/22 14:46:24;;;;;;;;;;;6.60;99.90;;;;;;5112084;28;19999;-69
2022/01/22 14:48:50;;;;;;;;;;;6.60;99.90;;;;;;5110562;28;19931;-69
2022/01/22 14:51:16;;;;;;;;;;;6.60;99.90;;;;;;5110696;28;19930;-69
2022/01/22 14:53:42;;;;;;;;;;;6.50;99.90;;;;;;5111699;28;20388;-71
2022/01/22 14:56:07;;;;;;;;;;;6.60;99.90;;;;;;5094234;28;19924;-68
2022/01/22 14:58:33;;;;;;;;;;;6.50;99.90;;;;;;5110941;28;19931;-69
2022/01/22 15:00:59;;;;;;;;;;;6.60;99.90;;;;;;5111757;28;19930;-69
2022/01/22 15:03:24;;;;;;;;;;;6.50;99.90;;;;;;5112251;28;20369;-68
2022/01/22 15:05:50;;;;;;;;;;;6.60;99.90;;;;;;5110513;28;20399;-69
2022/01/22 15:08:15;;;;;;;;;;;6.50;99.90;;;;;;5111707;28;19931;-68
2022/01/22 15:10:42;;;;;;;;;;;6.60;99.90;;;;;;5110702;28;19943;-68
2022/01/22 15:13:07;;;;;;;;;;;6.50;99.90;;;;;;5110973;28;20453;-67
2022/01/22 15:15:41;;;;;;;;;;;6.50;99.90;;;;;;5110506;28;19919;-68
2022/01/22 15:18:14;;;;;;;;;;;6.50;99.90;;;;;;5110781;28;19982;-67
2022/01/22 15:20:40;;;;;;;;;;;6.50;99.90;;;;;;5110833;28;19924;-68
2022/01/22 15:23:05;;;;;;;;;;;6.50;99.90;;;;;;5110058;28;20093;-68
2022/01/22 15:25:31;;;;;;;;;;;6.50;99.90;;;;;;5113644;28;20042;-69
2022/01/22 15:27:57;;;;;;;;;;;6.50;99.90;;;;;;5114059;28;20538;-69
2022/01/22 15:30:30;;;;;;;;;;;6.50;99.90;;;;;;5114518;28;19919;-69
2022/01/22 15:33:01;;;;;;;;;;;6.50;99.90;;;;;;5115252;28;19950;-69
2022/01/22 15:35:26;;;;;;;;;;;6.50;99.90;;;;;;5115604;28;20007;-67
2022/01/22 15:37:54;;;;;;;;;;;6.50;99.90;;;;;;5114726;28;20018;-66
2022/01/22 15:40:21;;;;;;;;;;;6.50;99.90;;;;;;5114213;28;19923;-68
2022/01/22 15:42:47;;;;;;;;;;;6.60;99.90;;;;;;5114577;27;20022;-66
2022/01/22 15:45:13;;;;;;;;;;;6.50;99.90;;;;;;5113415;28;20456;-67
2022/01/22 15:47:38;;;;;;;;;;;6.50;99.90;;;;;;5115151;28;19924;-66
2022/01/22 15:50:05;;;;;;;;;;;6.50;99.90;;;;;;5114624;28;19924;-66
2022/01/22 15:52:31;;;;;;;;;;;6.50;99.90;;;;;;5114727;28;19931;-65
2022/01/22 15:54:57;;;;;;;;;;;6.50;99.90;;;;;;5113405;28;20403;-66
2022/01/22 15:57:23;;;;;;;;;;;6.50;99.90;;;;;;5113729;28;19924;-66
2022/01/22 15:59:49;;;;;;;;;;;6.40;99.90;;;;;;5113844;28;19931;-67
2022/01/22 16:02:16;;;;;;;;;;;6.40;99.90;;;;;;5114465;28;19928;-67
2022/01/22 16:04:48;;;;;;;;;;;6.40;99.90;;;;;;5114649;28;19924;-67
2022/01/22 16:07:22;;;;;;;;;;;6.40;99.90;;;;;;5114483;28;19920;-67
2022/01/22 16:09:50;;;;;;;;;;;6.40;99.90;;;;;;5113485;28;19923;-67
2022/01/22 16:12:19;;;;;;;;;;;6.40;99.90;;;;;;5113170;28;19930;-67
2022/01/22 16:14:45;;;;;;;;;;;6.40;99.90;;;;;;5114811;28;19978;-68
2022/01/22 16:17:14;;;;;;;;;;;6.40;99.90;;;;;;5114132;28;19931;-68